Bellmore, New York
Current Conditions -  °F | °C
As of 4:44 PM on Thursday 27 Nov 2014 (Local Time) from KFRG Reporting Station
Overcast Overcast  
Wind Chill: 35°   Ceiling: 2200
Heat Index: 39°   Visibility: 10mi
Dew Point: 29°   Wind: 6mph
Humidity: 67%   Direction: 340°NNW
Pressure: 30"   Gusts: NA
Location:  40.67°N, 73.52°W
Report Text: KFRG 272144Z 34005KT 10SM BKN022 OVC040 04/M02 A3000 RMK AO2 T00391017
Loading
Personal Weather Stations






























Interactive Weather Map New forecast layout! Learn more

10-Day Weather Forecast

Advertisements
Track Severe Weather on mobile